createdAt,value
2022-08-18T11:15:55.364Z,9.77
2022-08-18T11:18:36.368Z,9.25
2022-08-18T11:21:24.964Z,7.97
2022-08-18T11:24:08.356Z,7.95
2022-08-18T11:26:40.911Z,7.68
2022-08-18T11:29:26.866Z,7.82
2022-08-18T11:32:01.892Z,7.88
2022-08-18T11:34:37.840Z,7.82
2022-08-18T11:37:21.901Z,7.43
2022-08-18T11:39:52.132Z,7.80
2022-08-18T11:42:27.942Z,6.60
2022-08-18T11:45:02.859Z,7.35
2022-08-18T11:47:33.568Z,6.60
2022-08-18T11:50:10.078Z,6.50
2022-08-18T11:52:53.885Z,6.57
2022-08-18T11:55:29.949Z,6.88
2022-08-18T11:58:00.383Z,7.45
2022-08-18T12:00:54.620Z,6.65
2022-08-18T12:03:37.850Z,6.30
2022-08-18T12:09:07.554Z,4.45
2022-08-18T12:14:32.639Z,5.55
2022-08-18T12:17:04.964Z,5.35
2022-08-18T12:19:36.177Z,4.97
2022-08-18T12:22:17.413Z,4.50
2022-08-18T12:24:48.314Z,5.40
2022-08-18T12:27:21.438Z,4.72
2022-08-18T12:29:51.678Z,5.35
2022-08-18T12:32:46.447Z,4.95
2022-08-18T12:35:12.201Z,5.22
2022-08-18T12:40:34.489Z,4.15
2022-08-18T12:43:02.545Z,4.82
2022-08-18T12:45:32.454Z,4.50
2022-08-18T12:48:04.365Z,4.32
2022-08-18T12:50:39.431Z,4.95
2022-08-18T12:53:18.581Z,4.63
2022-08-18T12:55:59.266Z,5.13
2022-08-18T12:58:29.191Z,4.95
2022-08-18T13:00:58.499Z,4.97
2022-08-18T13:03:27.362Z,4.95
2022-08-18T13:05:58.924Z,4.57
2022-08-18T13:08:33.527Z,6.00
2022-08-18T13:11:15.062Z,5.40
2022-08-18T13:13:52.644Z,5.10
2022-08-18T13:16:38.532Z,4.50
2022-08-18T13:19:12.234Z,4.90
2022-08-18T13:21:43.185Z,4.28
2022-08-18T13:24:12.513Z,4.85
2022-08-18T13:26:45.855Z,5.20
2022-08-18T13:29:15.506Z,6.03
2022-08-18T13:31:55.851Z,6.88
2022-08-18T13:34:29.911Z,5.18
2022-08-18T13:39:31.305Z,4.55
2022-08-18T13:42:21.675Z,5.55
2022-08-18T13:44:53.348Z,5.18
2022-08-18T13:47:22.604Z,5.72
2022-08-18T13:49:59.015Z,5.20
2022-08-18T13:52:36.221Z,5.75
2022-08-18T13:55:11.710Z,6.63
2022-08-18T13:57:48.158Z,6.53
2022-08-18T14:00:29.726Z,5.45
2022-08-18T14:03:03.368Z,5.13
2022-08-18T14:08:21.837Z,5.22
2022-08-18T14:10:54.698Z,5.82
2022-08-18T14:13:24.725Z,5.88
2022-08-18T14:15:54.994Z,5.53
2022-08-18T14:18:29.171Z,6.45
2022-08-18T14:21:17.085Z,5.40
2022-08-18T14:24:14.238Z,6.45
2022-08-18T14:26:50.013Z,6.15
2022-08-18T14:29:46.235Z,5.18
2022-08-18T14:32:08.517Z,7.50
2022-08-18T14:34:36.921Z,5.80
2022-08-18T14:37:05.241Z,6.53
2022-08-18T14:39:39.554Z,6.03
2022-08-18T14:42:08.824Z,5.97
2022-08-18T14:44:40.405Z,6.13
2022-08-18T14:47:13.819Z,5.47
2022-08-18T14:52:23.947Z,5.70
2022-08-18T14:54:53.483Z,6.03
2022-08-18T14:57:23.081Z,5.88
2022-08-18T14:59:54.575Z,5.80
2022-08-18T15:02:25.442Z,5.57
2022-08-18T15:04:57.892Z,5.57
2022-08-18T15:07:26.485Z,4.78
2022-08-18T15:10:15.240Z,5.07
2022-08-18T15:12:45.709Z,5.05
2022-08-18T15:15:17.809Z,5.40
2022-08-18T15:17:49.564Z,5.45
2022-08-18T15:20:24.033Z,4.82
2022-08-18T15:23:18.348Z,4.75
2022-08-18T15:25:54.260Z,5.05
2022-08-18T15:28:27.068Z,4.18
2022-08-18T15:33:43.851Z,5.28
2022-08-18T15:36:23.984Z,4.07
2022-08-18T15:38:57.277Z,4.43
2022-08-18T15:41:34.117Z,4.13
2022-08-18T15:44:03.762Z,4.35
2022-08-18T15:46:34.530Z,4.13
2022-08-18T15:49:05.288Z,4.20
2022-08-18T15:51:41.237Z,4.32
2022-08-18T15:54:12.289Z,4.47
2022-08-18T15:56:43.275Z,4.35
2022-08-18T15:59:11.675Z,4.10
2022-08-18T16:01:43.474Z,4.00
2022-08-18T16:04:15.324Z,4.05
2022-08-18T16:06:47.655Z,4.10
2022-08-18T16:10:40.114Z,4.38
2022-08-18T16:13:09.619Z,4.22
2022-08-18T16:15:40.318Z,4.30
2022-08-18T16:18:09.537Z,4.03
2022-08-18T16:20:39.414Z,4.60
2022-08-18T16:23:07.852Z,3.67
2022-08-18T16:25:39.066Z,3.85
2022-08-18T16:28:07.314Z,3.63
2022-08-18T16:30:36.255Z,4.15
2022-08-18T16:33:06.024Z,3.70
2022-08-18T16:35:35.127Z,4.43
2022-08-18T16:38:05.465Z,4.10
2022-08-18T16:40:33.649Z,4.30
2022-08-18T16:43:03.978Z,4.20
2022-08-18T16:45:33.496Z,4.65
2022-08-18T16:48:02.319Z,4.75
2022-08-18T16:50:30.939Z,4.72
2022-08-18T16:52:59.036Z,5.25
2022-08-18T16:55:27.088Z,5.35
2022-08-18T16:58:15.632Z,5.25
2022-08-18T17:01:03.111Z,6.18
2022-08-18T17:03:49.022Z,5.38
2022-08-18T17:06:19.140Z,5.30
2022-08-18T17:08:47.605Z,5.57
2022-08-18T17:11:18.951Z,6.30
2022-08-18T17:13:48.182Z,7.32
2022-08-18T17:16:19.694Z,5.22
2022-08-18T17:18:48.158Z,5.05
2022-08-18T17:21:18.458Z,5.30
2022-08-18T17:23:47.527Z,6.28
2022-08-18T17:26:33.503Z,5.93
2022-08-18T17:29:07.895Z,5.47
2022-08-18T17:31:37.571Z,5.70
2022-08-18T17:34:09.940Z,5.72
2022-08-18T17:36:53.122Z,6.78
2022-08-18T17:39:25.406Z,6.53
2022-08-18T17:42:10.992Z,5.63
2022-08-18T17:44:46.394Z,7.85
2022-08-18T17:47:28.937Z,7.15
2022-08-18T17:50:28.232Z,7.13
2022-08-18T17:53:05.221Z,9.35
2022-08-18T17:55:39.380Z,7.93
2022-08-18T17:58:13.457Z,9.93
2022-08-18T18:00:41.983Z,10.43
2022-08-18T18:03:13.310Z,9.55
2022-08-18T18:05:45.371Z,11.45
2022-08-18T18:08:13.470Z,10.55
2022-08-18T18:13:34.646Z,10.32
2022-08-18T18:16:20.754Z,10.25
2022-08-18T18:19:00.857Z,9.13
2022-08-18T18:21:55.341Z,9.32
2022-08-18T18:24:23.757Z,8.13
2022-08-18T18:26:52.675Z,8.25
2022-08-18T18:29:29.309Z,9.13
2022-08-18T18:32:03.296Z,8.82
2022-08-18T18:34:39.446Z,6.75
2022-08-18T18:37:25.246Z,8.60
2022-08-18T18:39:58.578Z,8.30
2022-08-18T18:42:30.097Z,7.72
2022-08-18T18:45:01.059Z,8.48
2022-08-18T18:47:47.343Z,7.68
2022-08-18T18:50:23.500Z,8.30
2022-08-18T18:53:02.290Z,8.10
2022-08-18T18:55:35.892Z,7.47
2022-08-18T18:58:18.390Z,7.70
2022-08-18T19:00:53.884Z,8.55
2022-08-18T19:03:30.730Z,8.57
2022-08-18T19:06:14.861Z,8.07
2022-08-18T19:08:51.897Z,9.43
2022-08-18T19:11:31.138Z,8.73
2022-08-18T19:14:03.785Z,9.05
2022-08-18T19:16:41.812Z,9.68
2022-08-18T19:19:35.921Z,9.43
2022-08-18T19:22:11.060Z,9.68
2022-08-18T19:24:52.403Z,9.48
2022-08-18T19:27:27.966Z,8.68
2022-08-18T19:30:01.072Z,8.82
2022-08-18T19:32:37.920Z,10.65
2022-08-18T19:35:12.385Z,9.70
2022-08-18T19:38:01.871Z,9.82
2022-08-18T19:40:42.671Z,9.60
2022-08-18T19:43:16.786Z,10.57
2022-08-18T19:45:53.177Z,10.25
2022-08-18T19:48:28.624Z,9.43
2022-08-18T19:51:04.890Z,9.45
2022-08-18T19:53:52.798Z,9.85
2022-08-18T19:56:45.623Z,9.13
2022-08-18T19:59:27.190Z,8.20
2022-08-18T20:02:18.139Z,8.80
2022-08-18T20:05:04.514Z,8.43
2022-08-18T20:08:20.508Z,7.88
2022-08-18T20:11:20.909Z,7.88
2022-08-18T20:14:12.599Z,7.82
2022-08-18T20:16:44.914Z,7.97
2022-08-18T20:19:49.813Z,7.88
2022-08-18T20:22:33.812Z,6.70
2022-08-18T20:25:06.641Z,7.35
2022-08-18T20:27:39.836Z,6.22
2022-08-18T20:30:33.942Z,7.78
2022-08-18T20:33:11.456Z,7.13
2022-08-18T20:35:45.784Z,6.65
2022-08-18T20:38:34.203Z,7.32
2022-08-18T20:41:31.423Z,6.90
2022-08-18T20:46:43.545Z,6.60
2022-08-18T20:49:23.948Z,6.85
2022-08-18T20:52:04.034Z,7.45
2022-08-18T20:54:57.494Z,7.28
2022-08-18T20:57:35.128Z,6.40
2022-08-18T21:00:14.799Z,6.07
2022-08-18T21:02:49.610Z,6.65
2022-08-18T21:05:27.814Z,6.88
2022-08-18T21:08:05.343Z,6.22
2022-08-18T21:10:35.387Z,6.10
2022-08-18T21:13:10.282Z,5.88
2022-08-18T21:15:40.391Z,6.82
2022-08-18T21:18:19.247Z,6.50
2022-08-18T21:20:48.353Z,5.72
2022-08-18T21:23:24.610Z,5.90
2022-08-18T21:25:55.854Z,5.57
2022-08-18T21:28:27.613Z,6.50
2022-08-18T21:31:42.379Z,5.75
2022-08-18T21:38:58.486Z,5.70
2022-08-18T21:41:40.307Z,5.93
2022-08-18T21:44:14.568Z,5.63
2022-08-18T21:46:45.515Z,5.50
2022-08-18T21:49:23.458Z,5.45
2022-08-18T21:51:52.775Z,6.53
2022-08-18T21:54:22.992Z,5.65
2022-08-18T21:57:21.673Z,5.70
2022-08-18T22:00:14.560Z,6.05
2022-08-18T22:02:44.267Z,6.05
2022-08-18T22:05:13.102Z,6.30
2022-08-18T22:07:48.274Z,5.63
2022-08-18T22:10:42.446Z,6.05
2022-08-18T22:13:34.413Z,6.00
2022-08-18T22:16:27.044Z,5.45
2022-08-18T22:19:10.084Z,5.55
2022-08-18T22:21:40.860Z,6.45
2022-08-18T22:24:21.361Z,6.20
2022-08-18T22:27:04.312Z,6.00
2022-08-18T22:29:36.815Z,5.57
2022-08-18T22:32:14.694Z,6.50
2022-08-18T22:34:44.279Z,6.43
2022-08-18T22:37:14.797Z,5.75
2022-08-18T22:39:47.034Z,5.70
2022-08-18T22:42:17.011Z,5.93
2022-08-18T22:44:45.954Z,6.65
2022-08-18T22:47:14.174Z,5.47
2022-08-18T22:49:45.265Z,6.90
2022-08-18T22:52:29.770Z,6.95
2022-08-18T22:54:59.080Z,6.72
2022-08-18T22:57:28.921Z,5.93
2022-08-18T22:59:58.132Z,6.57
2022-08-18T23:02:27.623Z,6.00
2022-08-18T23:04:56.978Z,5.80
2022-08-18T23:07:25.054Z,8.00
2022-08-18T23:09:53.031Z,6.22
2022-08-18T23:12:21.144Z,6.15
2022-08-18T23:14:49.606Z,6.20
2022-08-18T23:17:17.842Z,6.75
2022-08-18T23:19:46.835Z,6.30
2022-08-18T23:22:16.726Z,5.82
2022-08-18T23:24:44.942Z,6.68
2022-08-18T23:27:12.975Z,6.25
2022-08-18T23:29:43.938Z,6.10
2022-08-18T23:32:13.030Z,6.57
2022-08-18T23:34:41.249Z,7.28
2022-08-18T23:37:10.312Z,6.55
2022-08-18T23:39:39.987Z,6.43
2022-08-18T23:42:13.047Z,6.55
2022-08-18T23:44:42.484Z,6.50
2022-08-18T23:47:10.736Z,6.32
2022-08-18T23:49:39.057Z,6.75
2022-08-18T23:52:07.203Z,5.97
2022-08-18T23:54:36.411Z,5.65
2022-08-18T23:57:06.324Z,5.68
2022-08-18T23:59:34.430Z,6.32
